Terminal Aerodrome Forecast
Issued by NWS

Home | Current Version | Previous Version | Text Only | Print | Product List | Glossary On
Versions: 1 2 3 4 5 6 7 8 9 10 11 12
000
FTUS45 KREV 202320
TAFMMH
TAF
KMMH 202320Z 2100/2124 29011G19KT P6SM BKN070 BKN200
     FM210400 30009KT P6SM VCSH SCT030 BKN060
     FM211000 33006KT P6SM -SHRA BKN030 OVC050
     FM211700 09008KT P6SM -RA BKN015 OVC030=

USA.gov is the U.S. government's official web portal to all federal, state and local government web resources and services.